Chicago, Illinois
Traffic Map
Current Weather Conditions
Chicago, Illinois
Few Clouds
Few Clouds
23°
Feels Like: 23°
Wind Chill: 23° Ceiling: Unl
Heat Index: 23° Visibility: 10mi
Dew Point: 19° Wind: 7mph
Humidity: 81% Direction: 70° (ENE)
Pressure: 29.96in Gusts: 0mph
Raw Report DataKMDW 040653Z 07006KT 10SM FEW048 23/19 A2996 RMK AO2 SLP133 T02280194 $
Traffic Incident Summary
Active as of:
Severity:
Category:
InformationThere was an issue retrieving the traffic information for this location. Please try a different location or try again shortly.
Advertisements
Track Severe Weather on mobile